Time;durP1;ratioP1;P1;durP2;ratioP2;P2;SDS_P1;SDS_P2;PMS_P1;PMS_P2;Temp;Humidity;BMP_temperature;BMP_pressure;BME280_temperature;BME280_humidity;BME280_pressure;Samples;Min_cycle;Max_cycle;Signal;HPM_P1;HPM_P2
2021/10/29 00:00:56;;;;;;;3.38;2.03;;;;;;;12.73;53.70;100446.34;3504076;28;20046;-81
2021/10/29 00:02:37;;;;;;;1.92;1.63;;;;;;;12.73;53.75;100446.34;3504189;28;20101;-81
2021/10/29 00:04:18;;;;;;;5.30;2.25;;;;;;;12.73;53.74;100450.88;3501130;28;20040;-80
2021/10/29 00:05:59;;;;;;;2.58;1.50;;;;;;;12.71;53.69;100453.75;3501711;28;20040;-78
2021/10/29 00:07:39;;;;;;;3.90;2.13;;;;;;;12.68;53.62;100453.28;3510995;28;20040;-79
2021/10/29 00:09:20;;;;;;;2.63;1.70;;;;;;;12.71;53.67;100452.91;3516139;28;20069;-78
2021/10/29 00:11:03;;;;;;;2.95;1.77;;;;;;;12.69;53.66;100454.94;3515170;28;20101;-80
2021/10/29 00:12:43;;;;;;;2.28;1.60;;;;;;;12.69;53.67;100454.94;3499749;28;20054;-80
2021/10/29 00:14:25;;;;;;;3.63;1.30;;;;;;;12.68;53.69;100462.16;3497447;28;20093;-79
2021/10/29 00:16:05;;;;;;;4.35;2.08;;;;;;;12.66;53.81;100467.66;3502893;28;20027;-80
2021/10/29 00:17:47;;;;;;;3.40;1.88;;;;;;;12.65;53.82;100459.84;3510022;28;20034;-79
2021/10/29 00:19:27;;;;;;;5.78;2.20;;;;;;;12.65;53.92;100466.03;3511685;28;20028;-78
2021/10/29 00:21:08;;;;;;;5.70;1.98;;;;;;;12.65;53.79;100473.22;3498525;28;20036;-78
2021/10/29 00:22:49;;;;;;;5.70;2.70;;;;;;;12.65;53.75;100468.69;3494123;28;20032;-79
2021/10/29 00:24:30;;;;;;;3.25;1.90;;;;;;;12.66;53.81;100469.53;3497064;28;20040;-80
2021/10/29 00:26:11;;;;;;;2.80;2.10;;;;;;;12.65;53.61;100471.38;3497094;28;20049;-78
2021/10/29 00:27:52;;;;;;;2.70;1.90;;;;;;;12.63;53.85;100465.38;3508947;28;20035;-81
2021/10/29 00:29:33;;;;;;;3.25;1.98;;;;;;;12.66;53.89;100462.31;3511087;28;20040;-81
2021/10/29 00:31:14;;;;;;;4.45;1.60;;;;;;;12.65;53.91;100460.69;3504747;28;20583;-81
2021/10/29 00:32:55;;;;;;;1.77;1.40;;;;;;;12.64;53.82;100450.97;3505551;28;20067;-80
2021/10/29 00:34:35;;;;;;;3.70;2.40;;;;;;;12.64;53.76;100459.00;3495851;28;20078;-80
2021/10/29 00:36:16;;;;;;;5.20;2.30;;;;;;;12.61;53.58;100459.38;3497762;28;20043;-82
2021/10/29 00:37:57;;;;;;;4.47;2.28;;;;;;;12.62;53.55;100468.22;3505564;28;20093;-78
2021/10/29 00:39:38;;;;;;;3.85;2.33;;;;;;;12.60;53.52;100478.31;3503506;28;20771;-79
2021/10/29 00:41:18;;;;;;;5.78;2.85;;;;;;;12.60;53.66;100471.09;3491956;28;20037;-80
2021/10/29 00:42:59;;;;;;;3.78;1.98;;;;;;;12.57;53.70;100468.81;3494308;28;20044;-82
2021/10/29 00:44:40;;;;;;;4.03;2.40;;;;;;;12.62;53.66;100471.75;3507756;28;20062;-80
2021/10/29 00:46:21;;;;;;;3.97;2.20;;;;;;;12.65;53.83;100481.25;3510033;28;20043;-79
2021/10/29 00:48:03;;;;;;;4.20;2.88;;;;;;;12.61;53.62;100474.59;3503038;28;20040;-79
2021/10/29 00:49:43;;;;;;;5.53;2.92;;;;;;;12.64;53.72;100479.56;3496627;28;20273;-79
2021/10/29 00:51:24;;;;;;;5.97;2.83;;;;;;;12.62;53.64;100482.44;3507842;28;20415;-77
2021/10/29 00:53:05;;;;;;;8.23;3.85;;;;;;;12.63;53.74;100478.75;3510331;28;20048;-79
2021/10/29 00:54:46;;;;;;;7.88;3.63;;;;;;;12.62;53.85;100489.63;3508389;28;20051;-78
2021/10/29 00:56:26;;;;;;;7.93;3.85;;;;;;;12.62;53.88;100487.81;3510343;28;20043;-80
2021/10/29 00:58:07;;;;;;;7.25;3.63;;;;;;;12.62;54.07;100485.13;3501754;28;20036;-78
2021/10/29 00:59:50;;;;;;;7.15;3.78;;;;;;;12.63;54.10;100488.63;3496061;28;20044;-78
2021/10/29 01:01:32;;;;;;;7.40;3.67;;;;;;;12.59;53.99;100480.13;3484290;28;20110;-78
2021/10/29 01:03:13;;;;;;;9.13;3.72;;;;;;;12.62;54.06;100484.28;3495907;28;20142;-78
2021/10/29 01:04:53;;;;;;;7.57;4.22;;;;;;;12.60;54.06;100479.13;3496197;28;20211;-79
2021/10/29 01:06:34;;;;;;;9.85;4.20;;;;;;;12.60;54.14;100479.13;3492255;28;20041;-79
2021/10/29 01:08:15;;;;;;;9.13;4.00;;;;;;;12.61;54.15;100486.13;3499092;28;20101;-78
2021/10/29 01:09:55;;;;;;;9.90;3.80;;;;;;;12.55;54.05;100476.19;3508925;28;20035;-77
2021/10/29 01:11:36;;;;;;;7.38;4.50;;;;;;;12.60;54.22;100489.84;3508899;28;20047;-79
2021/10/29 01:13:17;;;;;;;7.73;4.23;;;;;;;12.63;54.20;100494.81;3496904;28;20072;-80
2021/10/29 01:15:00;;;;;;;8.77;4.10;;;;;;;12.61;54.33;100480.78;3519190;28;20292;-79
2021/10/29 01:16:40;;;;;;;9.57;4.30;;;;;;;12.65;54.24;100486.59;3505823;28;20042;-80
2021/10/29 01:18:21;;;;;;;6.57;4.13;;;;;;;12.62;54.24;100481.59;3497565;28;20468;-79
2021/10/29 01:20:03;;;;;;;7.55;4.25;;;;;;;12.63;54.11;100489.44;3496291;28;20045;-78
2021/10/29 01:21:44;;;;;;;6.20;3.85;;;;;;;12.63;54.14;100497.47;3496485;28;20482;-78
2021/10/29 01:23:24;;;;;;;7.05;3.78;;;;;;;12.63;54.26;100483.28;3505191;28;20053;-77
2021/10/29 01:25:06;;;;;;;7.88;4.10;;;;;;;12.63;54.21;100477.94;3508188;28;20590;-78
2021/10/29 01:26:46;;;;;;;12.63;4.38;;;;;;;12.63;54.13;100473.41;3508767;28;20585;-77
2021/10/29 01:28:27;;;;;;;5.00;3.33;;;;;;;12.63;53.92;100468.06;3506662;28;20132;-78
2021/10/29 01:30:10;;;;;;;5.55;3.35;;;;;;;12.63;53.94;100462.69;3498928;28;20044;-78
2021/10/29 01:31:50;;;;;;;6.05;3.78;;;;;;;12.62;53.70;100471.75;3495118;28;20147;-77
2021/10/29 01:33:32;;;;;;;6.55;3.53;;;;;;;12.61;53.60;100475.44;3503513;28;20043;-80
2021/10/29 01:35:14;;;;;;;4.93;3.67;;;;;;;12.57;53.42;100463.47;3505014;28;20032;-78
2021/10/29 01:36:55;;;;;;;6.28;3.15;;;;;;;12.61;53.32;100464.72;3510414;28;20051;-79
2021/10/29 01:38:37;;;;;;;5.38;2.67;;;;;;;12.59;53.22;100466.75;3505659;28;20119;-80
2021/10/29 01:40:18;;;;;;;8.10;3.28;;;;;;;12.59;53.13;100466.75;3498609;28;20127;-78
2021/10/29 01:42:02;;;;;;;5.55;2.92;;;;;;;12.58;53.04;100462.44;3509096;28;20040;-79
2021/10/29 01:43:45;;;;;;;6.30;3.55;;;;;;;12.59;53.11;100465.94;3496938;28;20036;-80
2021/10/29 01:45:26;;;;;;;5.70;3.05;;;;;;;12.56;53.18;100461.78;3500773;28;20091;-79
2021/10/29 01:47:07;;;;;;;5.78;3.45;;;;;;;12.56;53.00;100469.00;3492345;28;20048;-79
2021/10/29 01:48:52;;;;;;;6.18;2.75;;;;;;;12.56;53.24;100485.84;3502163;28;20536;-78
2021/10/29 01:50:32;;;;;;;5.95;3.35;;;;;;;12.58;53.27;100501.72;3503205;28;20036;-80
2021/10/29 01:52:13;;;;;;;5.63;3.35;;;;;;;12.59;53.35;100496.19;3496294;28;20040;-80
2021/10/29 01:53:54;;;;;;;5.70;3.42;;;;;;;12.61;53.48;100496.81;3496081;28;20040;-80
2021/10/29 01:55:37;;;;;;;5.30;3.33;;;;;;;12.62;53.43;100486.94;3496979;28;20036;-79
2021/10/29 01:57:18;;;;;;;5.50;2.65;;;;;;;12.61;53.16;100491.47;3496077;28;20093;-81
2021/10/29 01:58:59;;;;;;;3.83;2.63;;;;;;;12.61;53.18;100480.78;3510185;28;20042;-80
2021/10/29 02:00:39;;;;;;;5.68;3.25;;;;;;;12.62;53.14;100477.09;3501431;28;20416;-83
2021/10/29 02:02:20;;;;;;;5.05;2.80;;;;;;;12.63;53.22;100483.28;3501987;28;20047;-81
2021/10/29 02:04:01;;;;;;;5.80;3.35;;;;;;;12.62;53.38;100482.44;3506270;28;20051;-81
2021/10/29 02:05:43;;;;;;;5.60;3.60;;;;;;;12.63;53.47;100476.06;3507622;28;20634;-81
2021/10/29 02:07:24;;;;;;;8.20;3.50;;;;;;;12.61;53.49;100469.25;3494924;28;20059;-81
2021/10/29 02:09:05;;;;;;;6.25;3.80;;;;;;;12.63;53.41;100464.56;3489391;28;20029;-81
2021/10/29 02:10:45;;;;;;;5.18;3.58;;;;;;;12.61;53.43;100470.09;3495722;28;20040;-82
2021/10/29 02:12:26;;;;;;;3.90;3.13;;;;;;;12.61;53.42;100472.75;3497843;28;20103;-82
2021/10/29 02:14:07;;;;;;;5.30;3.72;;;;;;;12.59;53.32;100469.44;3510108;28;20044;-82
2021/10/29 02:15:48;;;;;;;6.43;3.63;;;;;;;12.40;53.33;100436.13;3503166;28;20036;-81
2021/10/29 02:17:29;;;;;;;6.25;3.25;;;;;;;12.57;53.23;100462.63;3500777;28;20525;-82
2021/10/29 02:19:11;;;;;;;6.10;2.85;;;;;;;12.53;53.27;100464.84;3506933;28;20079;-82
2021/10/29 02:20:51;;;;;;;7.70;3.13;;;;;;;12.49;53.36;100450.19;3499766;28;20045;-82
2021/10/29 02:22:32;;;;;;;5.13;3.40;;;;;;;12.50;53.15;100451.03;3508869;28;20552;-81
2021/10/29 02:24:13;;;;;;;5.07;3.22;;;;;;;12.50;53.06;100456.38;3508425;28;20044;-81
2021/10/29 02:25:54;;;;;;;7.30;3.85;;;;;;;12.44;53.08;100449.94;3510602;28;20085;-79
2021/10/29 02:27:35;;;;;;;5.03;3.08;;;;;;;12.44;53.02;100458.78;3499783;28;20075;-79
2021/10/29 02:29:16;;;;;;;7.38;3.28;;;;;;;12.45;53.24;100459.63;3503052;28;20036;-79
2021/10/29 02:30:57;;;;;;;7.85;3.85;;;;;;;12.43;53.45;100458.97;3510522;28;20047;-80
2021/10/29 02:32:37;;;;;;;5.80;3.58;;;;;;;12.41;53.48;100463.66;3498327;28;20120;-78
2021/10/29 02:34:18;;;;;;;7.97;4.28;;;;;;;12.39;53.36;100465.69;3498068;28;20131;-78
2021/10/29 02:35:59;;;;;;;7.57;4.13;;;;;;;12.38;53.45;100472.91;3499912;28;20043;-81
2021/10/29 02:37:40;;;;;;;13.32;4.07;;;;;;;12.37;53.62;100475.78;3508164;28;20036;-79
2021/10/29 02:39:21;;;;;;;7.13;4.03;;;;;;;12.33;53.70;100469.13;3506159;28;20043;-81
2021/10/29 02:41:02;;;;;;;8.85;4.65;;;;;;;12.33;53.70;100483.31;3498081;28;20036;-79
2021/10/29 02:42:43;;;;;;;7.20;4.10;;;;;;;12.32;53.68;100481.66;3497931;28;20044;-77
2021/10/29 02:44:24;;;;;;;9.00;4.38;;;;;;;12.31;53.78;100487.19;3511898;28;20093;-79
2021/10/29 02:46:05;;;;;;;7.95;4.15;;;;;;;12.28;53.77;100483.03;3511124;28;20070;-79
2021/10/29 02:47:48;;;;;;;6.40;3.53;;;;;;;12.23;53.61;100477.44;3506027;28;20032;-79
2021/10/29 02:49:29;;;;;;;7.57;4.60;;;;;;;12.25;53.68;100487.94;3508786;28;20044;-78
2021/10/29 02:51:10;;;;;;;6.72;3.75;;;;;;;12.24;53.77;100484.44;3511661;28;20258;-78
2021/10/29 02:52:51;;;;;;;5.75;4.18;;;;;;;12.20;53.53;100481.31;3512036;28;20411;-78
2021/10/29 02:54:32;;;;;;;6.80;4.37;;;;;;;12.23;53.62;100494.28;3512169;28;20572;-79
2021/10/29 02:56:13;;;;;;;6.53;3.47;;;;;;;12.22;53.54;100491.81;3511891;28;20036;-81
2021/10/29 02:57:53;;;;;;;7.47;4.32;;;;;;;12.22;53.72;100500.66;3509335;28;20161;-81
2021/10/29 02:59:34;;;;;;;6.70;3.63;;;;;;;12.22;53.62;100506.00;3508275;28;20389;-82
2021/10/29 03:01:15;;;;;;;5.88;3.78;;;;;;;12.22;53.73;100507.84;3509758;28;20044;-82
2021/10/29 03:02:56;;;;;;;7.65;4.18;;;;;;;12.22;53.68;100508.69;3509580;28;20068;-81
2021/10/29 03:04:37;;;;;;;7.25;4.22;;;;;;;12.21;53.75;100507.03;3511350;28;20086;-82
2021/10/29 03:06:18;;;;;;;8.40;4.15;;;;;;;12.20;53.73;100502.69;3512291;28;20036;-82
2021/10/29 03:07:58;;;;;;;7.47;4.18;;;;;;;12.19;53.68;100503.72;3500298;28;20047;-84
2021/10/29 03:09:40;;;;;;;7.53;3.95;;;;;;;12.17;53.76;100505.72;3507898;28;20131;-82
2021/10/29 03:11:21;;;;;;;6.03;4.07;;;;;;;12.18;53.58;100496.72;3515662;28;20044;-80
2021/10/29 03:13:01;;;;;;;5.90;3.53;;;;;;;12.17;53.77;100500.38;3509660;28;20040;-82
2021/10/29 03:14:42;;;;;;;6.45;4.25;;;;;;;12.19;53.80;100503.72;3497287;28;20412;-80
2021/10/29 03:16:23;;;;;;;8.70;4.22;;;;;;;12.20;53.75;100505.34;3506742;28;20538;-81
2021/10/29 03:18:04;;;;;;;9.32;4.65;;;;;;;12.20;53.64;100507.19;3508508;28;21078;-79
2021/10/29 03:19:45;;;;;;;7.00;4.45;;;;;;;12.18;53.47;100504.75;3508145;28;20048;-79
2021/10/29 03:21:25;;;;;;;9.77;5.00;;;;;;;12.19;53.43;100501.03;3502043;28;20525;-79
2021/10/29 03:23:06;;;;;;;9.55;4.07;;;;;;;12.20;53.57;100502.69;3511675;28;21246;-80
2021/10/29 03:24:47;;;;;;;7.70;5.22;;;;;;;12.18;53.37;100496.72;3510786;28;20085;-80
2021/10/29 03:26:28;;;;;;;8.77;4.72;;;;;;;12.19;53.13;100487.69;3511836;28;20040;-79
2021/10/29 03:28:09;;;;;;;9.70;5.43;;;;;;;12.19;53.03;100493.00;3509313;28;20068;-80
2021/10/29 03:29:49;;;;;;;17.83;5.63;;;;;;;12.19;52.91;100495.69;3507080;28;20064;-83
2021/10/29 03:31:30;;;;;;;12.48;5.20;;;;;;;12.18;52.86;100496.72;3508532;28;20391;-80
2021/10/29 03:33:11;;;;;;;13.55;6.38;;;;;;;12.19;52.85;100498.38;3511032;28;20036;-81
2021/10/29 03:34:52;;;;;;;15.07;6.40;;;;;;;12.18;52.71;100499.38;3511207;28;20036;-79
2021/10/29 03:36:32;;;;;;;9.57;5.07;;;;;;;12.17;52.73;100495.03;3507191;28;20039;-80
2021/10/29 03:42:02;;;;;;;11.50;6.90;;;;;;;12.19;52.59;100509.06;3500454;28;20111;-80
2021/10/29 03:45:27;;;;;;;12.23;6.10;;;;;;;12.17;52.60;100500.38;3500750;28;20040;-80
2021/10/29 03:47:08;;;;;;;15.15;7.55;;;;;;;12.16;52.43;100497.91;3510330;28;20036;-80
2021/10/29 03:48:59;;;;;;;12.93;6.93;;;;;;;12.14;52.57;100514.13;3510858;28;20089;-82
2021/10/29 03:50:43;;;;;;;11.90;6.75;;;;;;;12.15;52.43;100507.75;3510917;28;20533;-80
2021/10/29 03:52:28;;;;;;;10.20;6.30;;;;;;;12.15;52.65;100507.75;3500000;28;20037;-80
2021/10/29 03:55:54;;;;;;;12.23;6.25;;;;;;;12.17;52.72;100511.06;3505744;28;20716;-81
2021/10/29 03:57:35;;;;;;;;;;;;;;;12.28;52.53;100527.66;3505310;28;20090;-80
2021/10/29 03:59:16;;;;;;;8.25;5.45;;;;;;;12.19;52.58;100530.44;3519433;28;20298;-80
2021/10/29 04:00:56;;;;;;;10.52;5.75;;;;;;;12.17;52.76;100524.44;3506532;28;20040;-81
2021/10/29 04:02:37;;;;;;;12.90;6.43;;;;;;;12.13;52.52;100515.16;3509870;28;20447;-79
2021/10/29 04:04:18;;;;;;;12.15;6.68;;;;;;;12.16;52.75;100525.47;3499110;28;20070;-80
2021/10/29 04:05:58;;;;;;;13.07;6.43;;;;;;;12.17;52.77;100523.63;3502921;28;20040;-81
2021/10/29 04:07:39;;;;;;;12.65;7.03;;;;;;;12.18;52.68;100523.44;3504859;28;20456;-79
2021/10/29 04:09:20;;;;;;;12.88;6.47;;;;;;;12.18;52.59;100523.44;3497173;28;20041;-81
2021/10/29 04:11:00;;;;;;;13.80;6.88;;;;;;;12.19;52.65;100525.09;3497206;28;20415;-78
2021/10/29 04:12:42;;;;;;;18.90;6.97;;;;;;;12.20;52.61;100521.38;3501800;28;20067;-78
2021/10/29 04:14:27;;;;;;;10.85;6.28;;;;;;;12.21;52.72;100517.72;3511069;28;20067;-78
2021/10/29 04:16:08;;;;;;;13.57;6.30;;;;;;;12.19;52.41;100514.41;3505731;28;20097;-78
2021/10/29 04:17:49;;;;;;;13.63;6.43;;;;;;;12.18;52.62;100503.88;3502847;28;20147;-78
2021/10/29 04:19:30;;;;;;;10.60;6.85;;;;;;;12.20;52.53;100501.84;3497028;28;20051;-80
2021/10/29 04:21:11;;;;;;;13.20;6.72;;;;;;;12.22;52.47;100507.84;3500084;28;20119;-82
2021/10/29 04:22:52;;;;;;;14.82;8.00;;;;;;;12.19;52.50;100502.88;3493877;28;20063;-82
2021/10/29 04:24:33;;;;;;;13.02;6.95;;;;;;;12.17;52.53;100513.75;3491481;28;20118;-82
2021/10/29 04:26:14;;;;;;;14.93;6.68;;;;;;;12.17;52.38;100510.25;3499310;28;20055;-81
2021/10/29 04:28:05;;;;;;;13.73;6.43;;;;;;;12.18;52.22;100511.91;3497124;28;20403;-80
2021/10/29 04:29:48;;;;;;;13.07;6.80;;;;;;;12.17;52.32;100521.75;3509619;28;20035;-81
2021/10/29 04:31:31;;;;;;;11.68;6.72;;;;;;;12.16;52.45;100513.94;3498432;28;20052;-82
2021/10/29 04:33:13;;;;;;;11.27;6.55;;;;;;;12.14;52.47;100506.09;3497012;28;20037;-80
2021/10/29 04:34:54;;;;;;;12.60;6.53;;;;;;;12.17;52.54;100519.09;3496581;28;20455;-80
2021/10/29 04:36:35;;;;;;;11.77;6.93;;;;;;;12.19;52.49;100527.75;3496814;28;20044;-80
2021/10/29 04:38:15;;;;;;;12.88;6.97;;;;;;;12.16;52.39;100528.13;3502889;28;20352;-81
2021/10/29 04:39:56;;;;;;;12.38;6.47;;;;;;;12.17;52.35;100527.09;3497447;28;20048;-80
2021/10/29 04:41:38;;;;;;;11.25;5.97;;;;;;;12.15;52.36;100525.63;3496377;28;20466;-82
2021/10/29 04:43:18;;;;;;;9.52;6.57;;;;;;;12.16;52.20;100528.13;3495475;28;20045;-82
2021/10/29 04:44:59;;;;;;;11.40;6.53;;;;;;;12.14;52.22;100527.47;3496532;28;20052;-79
2021/10/29 04:46:40;;;;;;;10.93;6.32;;;;;;;12.11;51.82;100519.84;3498556;28;20119;-81
2021/10/29 04:48:21;;;;;;;8.52;6.25;;;;;;;12.15;52.10;100529.13;3512095;28;20032;-79
2021/10/29 04:50:03;;;;;;;13.00;6.55;;;;;;;12.14;51.99;100532.00;3509608;28;20092;-80
2021/10/29 04:51:44;;;;;;;11.13;7.47;;;;;;;12.14;51.84;100532.81;3503168;28;20147;-79
2021/10/29 04:53:25;;;;;;;9.70;6.72;;;;;;;12.14;51.96;100543.50;3502121;28;20446;-78
2021/10/29 04:55:06;;;;;;;14.85;6.55;;;;;;;12.16;51.89;100540.69;3508111;28;20039;-80
2021/10/29 04:56:48;;;;;;;10.63;6.57;;;;;;;12.17;51.84;100536.97;3510387;28;20064;-79
2021/10/29 04:58:29;;;;;;;11.15;6.50;;;;;;;12.14;51.90;100532.81;3509992;28;20051;-80
2021/10/29 05:00:10;;;;;;;12.55;5.82;;;;;;;12.10;51.71;100526.19;3509180;28;20515;-79
2021/10/29 05:01:51;;;;;;;10.80;6.15;;;;;;;12.17;51.83;100545.00;3491657;28;20519;-79
2021/10/29 05:03:32;;;;;;;11.93;6.75;;;;;;;12.18;51.84;100543.97;3493419;28;20054;-79
2021/10/29 05:05:13;;;;;;;9.90;6.47;;;;;;;12.16;51.66;100536.16;3495280;28;20067;-80
2021/10/29 05:06:57;;;;;;;11.07;7.15;;;;;;;12.19;51.69;100551.81;3495489;28;20036;-80
2021/10/29 05:08:38;;;;;;;11.60;6.18;;;;;;;12.17;51.71;100543.16;3504885;28;20062;-79
2021/10/29 05:10:19;;;;;;;9.50;6.05;;;;;;;12.15;51.69;100533.66;3496941;28;20053;-82
2021/10/29 05:12:00;;;;;;;10.48;6.60;;;;;;;12.19;51.70;100541.13;3502055;28;20120;-81
2021/10/29 05:13:41;;;;;;;11.20;6.57;;;;;;;12.18;51.68;100533.28;3495779;28;20119;-81
2021/10/29 05:15:22;;;;;;;12.18;7.50;;;;;;;12.19;51.72;100540.31;3485871;28;20126;-81
2021/10/29 05:17:03;;;;;;;8.70;5.72;;;;;;;12.16;51.56;100520.13;3485912;28;20470;-81
2021/10/29 05:18:43;;;;;;;10.38;6.72;;;;;;;12.12;51.58;100518.81;3495145;28;20038;-79
2021/10/29 05:20:24;;;;;;;8.85;6.43;;;;;;;12.17;51.57;100520.94;3510375;28;20411;-81
2021/10/29 05:22:05;;;;;;;11.98;6.72;;;;;;;12.17;51.63;100518.28;3494836;28;20480;-81
2021/10/29 05:23:46;;;;;;;10.87;6.80;;;;;;;12.19;51.34;100517.06;3501787;28;20042;-82
2021/10/29 05:25:27;;;;;;;11.95;6.40;;;;;;;12.26;51.56;100527.00;3496426;28;20705;-81
2021/10/29 05:27:08;;;;;;;11.13;7.45;;;;;;;12.26;51.49;100524.34;3496983;28;20041;-83
2021/10/29 05:28:48;;;;;;;12.23;7.57;;;;;;;12.33;51.42;100527.94;3498661;28;20036;-81
2021/10/29 05:30:29;;;;;;;11.73;7.35;;;;;;;12.34;51.33;100530.44;3499163;28;20047;-82
2021/10/29 05:32:10;;;;;;;12.60;7.10;;;;;;;12.35;51.41;100540.09;3510022;28;20058;-81
2021/10/29 05:33:51;;;;;;;9.32;6.07;;;;;;;12.38;51.45;100544.25;3504685;28;20064;-82
2021/10/29 05:35:31;;;;;;;13.00;7.43;;;;;;;12.40;51.53;100536.88;3495876;28;20040;-79
2021/10/29 05:37:12;;;;;;;12.02;7.55;;;;;;;12.41;51.34;100535.84;3504945;28;20142;-82
2021/10/29 05:38:53;;;;;;;13.65;8.90;;;;;;;12.43;51.43;100536.50;3507438;28;20499;-81
2021/10/29 05:40:34;;;;;;;12.13;7.78;;;;;;;12.41;51.34;100538.53;3512677;28;20040;-80
2021/10/29 05:42:14;;;;;;;11.15;7.25;;;;;;;12.45;51.30;100553.19;3511656;28;20129;-81
2021/10/29 05:43:57;;;;;;;12.75;7.45;;;;;;;12.46;51.30;100546.81;3498543;28;20503;-80
2021/10/29 05:45:38;;;;;;;12.15;7.00;;;;;;;12.47;51.38;100553.00;3511957;28;20052;-81
2021/10/29 05:47:19;;;;;;;11.32;7.25;;;;;;;12.49;51.31;100556.31;3510414;28;20036;-81
2021/10/29 05:49:00;;;;;;;11.23;7.93;;;;;;;12.47;51.29;100548.50;3510386;28;20040;-81
2021/10/29 05:50:48;;;;;;;11.15;6.55;;;;;;;12.40;51.32;100547.56;3504436;28;20634;-81
2021/10/29 05:52:29;;;;;;;12.30;7.03;;;;;;;12.48;51.18;100560.00;3510708;28;20044;-80
2021/10/29 05:56:13;;;;;;;8.48;5.18;;;;;;;12.49;51.12;100557.13;3483482;28;20052;-81
2021/10/29 05:57:54;;;;;;;10.98;6.53;;;;;;;12.46;51.19;100552.16;3516445;28;20054;-80
2021/10/29 05:59:35;;;;;;;8.70;6.03;;;;;;;12.43;51.31;100553.38;3512496;28;20043;-80
2021/10/29 06:01:16;;;;;;;10.43;6.28;;;;;;;12.46;51.29;100564.72;3508129;28;20043;-80
2021/10/29 06:03:03;;;;;;;11.65;5.93;;;;;;;12.49;51.49;100567.84;3512305;28;20503;-79
2021/10/29 06:04:44;;;;;;;8.65;5.65;;;;;;;12.49;51.44;100564.34;3512896;28;20050;-81
2021/10/29 06:06:25;;;;;;;7.35;4.78;;;;;;;12.51;51.35;100565.00;3504033;28;20040;-81
2021/10/29 06:08:06;;;;;;;7.75;5.53;;;;;;;12.49;51.44;100557.13;3495780;28;20043;-78
2021/10/29 06:09:47;;;;;;;7.03;5.22;;;;;;;12.50;51.44;100558.81;3499560;28;20036;-79
2021/10/29 06:11:29;;;;;;;7.63;4.80;;;;;;;12.52;51.57;100550.59;3498981;28;20546;-79
2021/10/29 06:13:09;;;;;;;6.30;4.47;;;;;;;12.55;51.56;100555.59;3482464;28;20037;-79
2021/10/29 06:14:50;;;;;;;8.48;5.55;;;;;;;12.56;51.53;100558.06;3497006;28;20189;-79
2021/10/29 06:16:31;;;;;;;8.90;5.07;;;;;;;12.58;51.57;100557.88;3499941;28;20040;-79
2021/10/29 06:18:20;;;;;;;7.05;5.15;;;;;;;12.58;51.62;100556.03;3505091;28;20051;-80
2021/10/29 06:20:01;;;;;;;6.75;4.50;;;;;;;12.58;51.50;100561.38;3499733;28;20495;-78
2021/10/29 06:21:55;;;;;;;7.90;4.10;;;;;;;12.58;51.41;100550.69;3512441;28;20082;-81
2021/10/29 06:24:00;;;;;;;6.88;4.45;;;;;;;12.57;51.47;100549.03;3506366;28;20048;-81
2021/10/29 06:25:45;;;;;;;5.60;4.05;;;;;;;12.60;51.35;100547.84;3500226;28;20458;-81
2021/10/29 06:29:07;;;;;;;4.97;3.45;;;;;;;12.57;51.20;100541.03;3511609;28;20051;-80
2021/10/29 06:30:48;;;;;;;5.22;3.22;;;;;;;12.62;51.14;100545.78;3505227;28;20119;-83
2021/10/29 06:32:29;;;;;;;4.20;3.30;;;;;;;12.64;51.43;100555.28;3498430;28;20423;-80
2021/10/29 06:34:12;;;;;;;7.07;4.10;;;;;;;12.68;51.46;100555.75;3497327;28;20044;-81
2021/10/29 06:35:54;;;;;;;4.55;3.50;;;;;;;12.70;51.34;100568.91;3511414;28;20800;-80
2021/10/29 06:37:36;;;;;;;6.55;3.88;;;;;;;12.70;51.47;100558.22;3508297;28;20042;-78
2021/10/29 06:39:20;;;;;;;7.20;3.70;;;;;;;12.71;51.25;100550.03;3501704;28;20052;-80
2021/10/29 06:41:01;;;;;;;5.90;3.22;;;;;;;12.72;51.23;100551.66;3511509;28;20097;-81
2021/10/29 06:42:49;;;;;;;6.60;4.28;;;;;;;12.73;51.28;100553.34;3497491;28;20166;-81
2021/10/29 06:44:41;;;;;;;7.90;3.10;;;;;;;12.76;51.29;100541.44;3509424;28;20051;-82
2021/10/29 06:46:50;;;;;;;6.13;4.32;;;;;;;12.83;51.27;100545.00;3509982;28;20494;-83
2021/10/29 07:04:24;;;;;;;5.28;3.22;;;;;;;13.02;51.13;100540.91;3501495;28;20577;-79
2021/10/29 07:41:49;;;;;;;5.45;2.75;;;;;;;13.96;49.43;100535.38;3497385;28;20044;-82
2021/10/29 07:43:42;;;;;;;4.57;3.15;;;;;;;13.87;49.69;100534.69;3502970;28;20426;-80
2021/10/29 07:45:26;;;;;;;4.15;3.20;;;;;;;13.76;49.85;100527.22;3492692;28;20046;-80
2021/10/29 07:47:07;;;;;;;3.83;3.35;;;;;;;13.69;49.91;100527.16;3496208;28;20064;-81
2021/10/29 07:48:48;;;;;;;4.18;2.83;;;;;;;13.63;50.12;100519.91;3498428;28;20427;-81
2021/10/29 07:50:29;;;;;;;7.72;2.83;;;;;;;13.58;50.09;100518.78;3512420;28;20048;-79
2021/10/29 07:52:10;;;;;;;5.15;2.97;;;;;;;13.53;50.32;100512.19;3510450;28;20036;-80
2021/10/29 07:53:52;;;;;;;5.55;2.35;;;;;;;13.48;50.37;100511.94;3511931;28;20514;-82
2021/10/29 07:55:32;;;;;;;9.35;2.72;;;;;;;13.45;50.31;100516.84;3512903;28;20094;-79
2021/10/29 07:57:19;;;;;;;5.60;2.35;;;;;;;13.40;50.44;100520.13;3510017;28;20032;-80
2021/10/29 07:59:02;;;;;;;4.07;2.80;;;;;;;13.38;50.43;100519.47;3509992;28;20043;-82
2021/10/29 08:00:46;;;;;;;4.80;2.83;;;;;;;13.35;50.57;100513.69;3509370;28;20412;-81
2021/10/29 08:02:26;;;;;;;3.60;2.42;;;;;;;13.33;50.64;100505.84;3496384;28;20039;-82
2021/10/29 08:04:08;;;;;;;4.28;2.38;;;;;;;13.31;50.77;100511.38;3496305;28;20123;-82
2021/10/29 08:05:53;;;;;;;4.60;2.78;;;;;;;13.30;50.85;100506.22;3495248;28;20032;-82
2021/10/29 08:07:34;;;;;;;6.07;3.20;;;;;;;13.27;50.87;100501.25;3505759;28;20050;-82
2021/10/29 08:09:16;;;;;;;;;;;;;;;13.35;50.70;100503.78;3510096;28;20131;-81
2021/10/29 08:10:56;;;;;;;4.25;2.47;;;;;;;13.27;50.66;100501.25;3508579;28;19920;-79
2021/10/29 08:12:39;;;;;;;4.60;3.08;;;;;;;13.22;50.90;100498.28;3505322;28;20609;-81
2021/10/29 08:14:22;;;;;;;4.63;2.08;;;;;;;13.18;51.06;100499.69;3509319;28;20052;-78
2021/10/29 08:16:03;;;;;;;4.20;2.63;;;;;;;13.15;51.23;100500.06;3507415;28;20087;-77
2021/10/29 08:17:47;;;;;;;4.97;2.97;;;;;;;13.13;51.54;100494.09;3496854;28;20070;-76
2021/10/29 08:19:31;;;;;;;10.52;3.20;;;;;;;13.10;51.69;100503.31;3507752;28;20048;-79
2021/10/29 08:21:14;;;;;;;5.88;2.70;;;;;;;13.09;51.57;100499.81;3501763;28;20123;-76
2021/10/29 08:22:58;;;;;;;4.38;2.47;;;;;;;13.09;51.88;100499.00;3508273;28;20044;-76
2021/10/29 08:24:41;;;;;;;7.53;3.53;;;;;;;13.07;52.44;100495.69;3508782;28;20032;-77
2021/10/29 08:26:24;;;;;;;3.72;2.40;;;;;;;13.05;52.54;100500.38;3508822;28;20519;-77
2021/10/29 08:28:04;;;;;;;6.93;3.20;;;;;;;13.06;52.49;100500.22;3508822;28;20044;-77
2021/10/29 08:29:45;;;;;;;5.90;3.67;;;;;;;13.00;52.42;100494.78;3508395;28;20047;-77
2021/10/29 08:31:27;;;;;;;4.88;3.20;;;;;;;13.07;52.45;100504.53;3508077;28;20048;-77
2021/10/29 08:33:07;;;;;;;11.27;3.75;;;;;;;13.09;52.57;100499.00;3508673;28;20505;-78
2021/10/29 08:34:48;;;;;;;6.45;3.50;;;;;;;13.09;52.72;100494.47;3509671;28;20028;-78
2021/10/29 08:36:38;;;;;;;6.53;3.90;;;;;;;13.12;52.80;100501.28;3485041;28;20157;-82
2021/10/29 08:38:23;;;;;;;6.53;3.17;;;;;;;13.09;52.89;100489.13;3506002;28;20082;-82
2021/10/29 08:40:05;;;;;;;7.40;3.53;;;;;;;13.12;52.90;100495.94;3506154;28;20044;-82
2021/10/29 08:41:46;;;;;;;12.80;3.95;;;;;;;13.14;53.01;100496.56;3503979;28;20414;-80
2021/10/29 08:43:27;;;;;;;9.93;3.83;;;;;;;13.12;53.03;100500.47;3497443;28;20040;-82
2021/10/29 08:45:09;;;;;;;17.38;4.13;;;;;;;13.12;53.28;100497.78;3503701;28;20047;-77
2021/10/29 08:46:51;;;;;;;6.53;3.17;;;;;;;13.15;53.41;100492.03;3502319;28;20043;-76
2021/10/29 08:48:36;;;;;;;9.05;3.97;;;;;;;13.15;53.66;100500.91;3510272;28;20035;-80
2021/10/29 08:50:18;;;;;;;8.85;3.60;;;;;;;13.18;53.76;100494.34;3508562;28;20040;-79
2021/10/29 08:52:04;;;;;;;7.80;3.75;;;;;;;13.18;53.56;100491.66;3509048;28;20048;-80
2021/10/29 08:53:45;;;;;;;15.95;3.97;;;;;;;13.18;53.84;100484.44;3510336;28;20044;-78
2021/10/29 08:55:27;;;;;;;6.38;2.90;;;;;;;13.24;53.84;100491.72;3495595;28;20431;-80